PWSweather.com
Personal Weather Stations
Station Observations
KCOGRAND2
Redlands, Southcamp Road & Dakota Circle, Grand Junction, CO 81507

Redlands, Southcamp Road & Dakota CircleGrand Junction, CO 81507

Lat: 39.055, Lon: -108.637

Elevation: 4870

Station Type: RadioShack WX200

High Low Average
Temperature 46.2°F7.9°F 39.7°F4.3°F 42.2°F5.7°F
Dew Point 40.6°F4.8°F 29.5°F-1.4°F 34.9°F1.6°F
Winds 6.0 mph NNE9.7 mph NNE Calm Calm 1.7 mph 2.7 mph
Wind Gusts 10.5 mph16.9 mph -- 3.5 mph5.6 mph
Humidity 95% 55% 76%
Pressure 25.25 in855.10 in 24.98 in845.90 in -
Precipitation 0.00 in0.00 in - -
Hour Temp Dew Point Humidity Winds Wind Gusts Pressure Precip Precip Rate Daily Precip Total
12:00 AM 42.8°F6.0°C 31.1°F-0.5°C 63% Calm Calm -- 25.25 in855.1 mb 0.00 in0.0 mm 0.00 in/hr0.0 mm/hr 0.00 in0.0 mm
12:05 AM 43.2°F6.2°C 31.1°F-0.5°C 62% Calm Calm -- 25.25 in855.1 mb 0.00 in0.0 mm 0.00 in/hr0.0 mm/hr 0.00 in0.0 mm
12:10 AM 43.0°F6.1°C 30.4°F-0.9°C 61% Calm Calm -- 25.25 in855.1 mb 0.00 in0.0 mm 0.00 in/hr0.0 mm/hr 0.00 in0.0 mm
12:15 AM 43.2°F6.2°C 30.6°F-0.8°C 61% Calm Calm -- 25.25 in855.1 mb 0.00 in0.0 mm 0.00 in/hr0.0 mm/hr 0.00 in0.0 mm
12:20 AM 43.0°F6.1°C 30.4°F-0.9°C 61% Calm Calm -- 25.25 in855.1 mb 0.00 in0.0 mm 0.00 in/hr0.0 mm/hr 0.00 in0.0 mm
12:25 AM 43.3°F6.3°C 30.7°F-0.7°C 61% Calm Calm -- 25.25 in855.1 mb 0.00 in0.0 mm 0.00 in/hr0.0 mm/hr 0.00 in0.0 mm
12:30 AM 43.2°F6.2°C 30.6°F-0.8°C 61% Calm Calm -- 25.25 in855.1 mb 0.00 in0.0 mm 0.00 in/hr0.0 mm/hr 0.00 in0.0 mm
12:35 AM 42.8°F6.0°C 30.7°F-0.7°C 62% Calm Calm -- 25.25 in855.1 mb 0.00 in0.0 mm 0.00 in/hr0.0 mm/hr 0.00 in0.0 mm
12:40 AM 42.8°F6.0°C 31.1°F-0.5°C 63% Calm Calm -- 25.25 in855.1 mb 0.00 in0.0 mm 0.00 in/hr0.0 mm/hr 0.00 in0.0 mm
12:45 AM 42.1°F5.6°C 31.1°F-0.5°C 65% Calm Calm -- 25.25 in855.1 mb 0.00 in0.0 mm 0.00 in/hr0.0 mm/hr 0.00 in0.0 mm
12:50 AM 41.5°F5.3°C 31.5°F-0.3°C 67% Calm Calm 2.7 mph4.3 kmh 25.25 in855.1 mb 0.00 in0.0 mm 0.00 in/hr0.0 mm/hr 0.00 in0.0 mm
12:55 AM 41.0°F5.0°C 31.6°F-0.2°C 69% Calm Calm -- 25.25 in855.1 mb 0.00 in0.0 mm 0.00 in/hr0.0 mm/hr 0.00 in0.0 mm
01:00 AM 40.6°F4.8°C 32.0°F0.0°C 71% Calm Calm -- 25.25 in855.1 mb 0.00 in0.0 mm 0.00 in/hr0.0 mm/hr 0.00 in0.0 mm
01:05 AM 40.8°F4.9°C 32.5°F0.3°C 72% Calm Calm -- 25.25 in855.1 mb 0.00 in0.0 mm 0.00 in/hr0.0 mm/hr 0.00 in0.0 mm
01:10 AM 40.8°F4.9°C 32.5°F0.3°C 72% Calm Calm -- 25.22 in854.0 mb 0.00 in0.0 mm 0.00 in/hr0.0 mm/hr 0.00 in0.0 mm
01:15 AM 40.6°F4.8°C 32.7°F0.4°C 73% Calm Calm -- 25.22 in854.0 mb 0.00 in0.0 mm 0.00 in/hr0.0 mm/hr 0.00 in0.0 mm
01:20 AM 40.3°F4.6°C 32.7°F0.4°C 74% Calm Calm -- 25.22 in854.0 mb 0.00 in0.0 mm 0.00 in/hr0.0 mm/hr 0.00 in0.0 mm
01:25 AM 40.3°F4.6°C 32.7°F0.4°C 74% Calm Calm -- 25.22 in854.0 mb 0.00 in0.0 mm 0.00 in/hr0.0 mm/hr 0.00 in0.0 mm
01:30 AM 40.5°F4.7°C 32.9°F0.5°C 74% Calm Calm -- 25.22 in854.0 mb 0.00 in0.0 mm 0.00 in/hr0.0 mm/hr 0.00 in0.0 mm
01:35 AM 40.6°F4.8°C 33.3°F0.7°C 75% Calm Calm -- 25.22 in854.0 mb 0.00 in0.0 mm 0.00 in/hr0.0 mm/hr 0.00 in0.0 mm
01:40 AM 41.2°F5.1°C 33.6°F0.9°C 74% Calm Calm -- 25.22 in854.0 mb 0.00 in0.0 mm 0.00 in/hr0.0 mm/hr 0.00 in0.0 mm
01:45 AM 41.5°F5.3°C 33.6°F0.9°C 73% Calm Calm -- 25.22 in854.0 mb 0.00 in0.0 mm 0.00 in/hr0.0 mm/hr 0.00 in0.0 mm
01:50 AM 41.7°F5.4°C 33.4°F0.8°C 72% Calm Calm -- 25.22 in854.0 mb 0.00 in0.0 mm 0.00 in/hr0.0 mm/hr 0.00 in0.0 mm
01:55 AM 41.5°F5.3°C 32.9°F0.5°C 71% Calm Calm -- 25.22 in854.0 mb 0.00 in0.0 mm 0.00 in/hr0.0 mm/hr 0.00 in0.0 mm
02:00 AM 41.5°F5.3°C 32.9°F0.5°C 71% Calm Calm -- 25.22 in854.0 mb 0.00 in0.0 mm 0.00 in/hr0.0 mm/hr 0.00 in0.0 mm
02:05 AM 41.5°F5.3°C 32.9°F0.5°C 71% Calm Calm -- 25.22 in854.0 mb 0.00 in0.0 mm 0.00 in/hr0.0 mm/hr 0.00 in0.0 mm
02:10 AM 41.5°F5.3°C 32.5°F0.3°C 70% Calm Calm -- 25.22 in854.0 mb 0.00 in0.0 mm 0.00 in/hr0.0 mm/hr 0.00 in0.0 mm
02:15 AM 41.4°F5.2°C 32.4°F0.2°C 70% Calm Calm -- 25.22 in854.0 mb 0.00 in0.0 mm 0.00 in/hr0.0 mm/hr 0.00 in0.0 mm
02:20 AM 41.5°F5.3°C 32.9°F0.5°C 71% Calm Calm -- 25.22 in854.0 mb 0.00 in0.0 mm 0.00 in/hr0.0 mm/hr 0.00 in0.0 mm
02:25 AM 41.9°F5.5°C 32.9°F0.5°C 70% Calm Calm -- 25.22 in854.0 mb 0.00 in0.0 mm 0.00 in/hr0.0 mm/hr 0.00 in0.0 mm
02:30 AM 41.9°F5.5°C 32.9°F0.5°C 70% Calm Calm 3.1 mph5.0 kmh 25.22 in854.0 mb 0.00 in0.0 mm 0.00 in/hr0.0 mm/hr 0.00 in0.0 mm
02:35 AM 41.5°F5.3°C 32.5°F0.3°C 70% 1.0 mph NNE1.6 kmh NNE 3.1 mph5.0 kmh 25.22 in854.0 mb 0.00 in0.0 mm 0.00 in/hr0.0 mm/hr 0.00 in0.0 mm
02:40 AM 41.7°F5.4°C 32.7°F0.4°C 70% 2.0 mph NNE3.2 kmh NNE 4.0 mph6.4 kmh 25.22 in854.0 mb 0.00 in0.0 mm 0.00 in/hr0.0 mm/hr 0.00 in0.0 mm
02:45 AM 41.2°F5.1°C 32.2°F0.1°C 70% 3.0 mph NNE4.8 kmh NNE 4.5 mph7.2 kmh 25.22 in854.0 mb 0.00 in0.0 mm 0.00 in/hr0.0 mm/hr 0.00 in0.0 mm
02:50 AM 41.4°F5.2°C 32.7°F0.4°C 71% 2.0 mph NNE3.2 kmh NNE 3.1 mph5.0 kmh 25.22 in854.0 mb 0.00 in0.0 mm 0.00 in/hr0.0 mm/hr 0.00 in0.0 mm
02:55 AM 41.7°F5.4°C 33.1°F0.6°C 71% 2.0 mph NNE3.2 kmh NNE 4.5 mph7.2 kmh 25.22 in854.0 mb 0.00 in0.0 mm 0.00 in/hr0.0 mm/hr 0.00 in0.0 mm
03:00 AM 41.0°F5.0°C 32.7°F0.4°C 72% 1.0 mph NNE1.6 kmh NNE 3.6 mph5.8 kmh 25.22 in854.0 mb 0.00 in0.0 mm 0.00 in/hr0.0 mm/hr 0.00 in0.0 mm
03:05 AM 40.6°F4.8°C 32.7°F0.4°C 73% Calm Calm 2.7 mph4.3 kmh 25.22 in854.0 mb 0.00 in0.0 mm 0.00 in/hr0.0 mm/hr 0.00 in0.0 mm
03:10 AM 40.6°F4.8°C 32.7°F0.4°C 73% Calm Calm 2.7 mph4.3 kmh 25.22 in854.0 mb 0.00 in0.0 mm 0.00 in/hr0.0 mm/hr 0.00 in0.0 mm
03:15 AM 41.0°F5.0°C 33.4°F0.8°C 74% Calm Calm 2.7 mph4.3 kmh 25.22 in854.0 mb 0.00 in0.0 mm 0.00 in/hr0.0 mm/hr 0.00 in0.0 mm
03:20 AM 41.2°F5.1°C 33.6°F0.9°C 74% Calm Calm -- 25.22 in854.0 mb 0.00 in0.0 mm 0.00 in/hr0.0 mm/hr 0.00 in0.0 mm
03:25 AM 41.4°F5.2°C 33.6°F0.9°C 74% Calm Calm -- 25.22 in854.0 mb 0.00 in0.0 mm 0.00 in/hr0.0 mm/hr 0.00 in0.0 mm
03:30 AM 41.4°F5.2°C 33.4°F0.8°C 73% Calm Calm -- 25.22 in854.0 mb 0.00 in0.0 mm 0.00 in/hr0.0 mm/hr 0.00 in0.0 mm
03:35 AM 41.2°F5.1°C 33.3°F0.7°C 73% Calm Calm -- 25.22 in854.0 mb 0.00 in0.0 mm 0.00 in/hr0.0 mm/hr 0.00 in0.0 mm
03:40 AM 41.2°F5.1°C 33.3°F0.7°C 73% Calm Calm -- 25.22 in854.0 mb 0.00 in0.0 mm 0.00 in/hr0.0 mm/hr 0.00 in0.0 mm
03:45 AM 41.2°F5.1°C 33.3°F0.7°C 73% Calm Calm -- 25.22 in854.0 mb 0.00 in0.0 mm 0.00 in/hr0.0 mm/hr 0.00 in0.0 mm
03:50 AM 41.2°F5.1°C 33.3°F0.7°C 73% Calm Calm -- 25.22 in854.0 mb 0.00 in0.0 mm 0.00 in/hr0.0 mm/hr 0.00 in0.0 mm
03:55 AM 41.5°F5.3°C 33.6°F0.9°C 73% Calm Calm -- 25.22 in854.0 mb 0.00 in0.0 mm 0.00 in/hr0.0 mm/hr 0.00 in0.0 mm
04:00 AM 41.5°F5.3°C 33.3°F0.7°C 72% Calm Calm -- 25.22 in854.0 mb 0.00 in0.0 mm 0.00 in/hr0.0 mm/hr 0.00 in0.0 mm
04:05 AM 41.5°F5.3°C 33.3°F0.7°C 72% Calm Calm -- 25.22 in854.0 mb 0.00 in0.0 mm 0.00 in/hr0.0 mm/hr 0.00 in0.0 mm
04:10 AM 41.5°F5.3°C 33.3°F0.7°C 72% Calm Calm -- 25.19 in853.0 mb 0.00 in0.0 mm 0.00 in/hr0.0 mm/hr 0.00 in0.0 mm
04:15 AM 41.5°F5.3°C 33.3°F0.7°C 72% Calm Calm -- 25.19 in853.0 mb 0.00 in0.0 mm 0.00 in/hr0.0 mm/hr 0.00 in0.0 mm
04:20 AM 41.0°F5.0°C 33.1°F0.6°C 73% Calm Calm -- 25.19 in853.0 mb 0.00 in0.0 mm 0.00 in/hr0.0 mm/hr 0.00 in0.0 mm
04:25 AM 41.0°F5.0°C 33.1°F0.6°C 73% Calm Calm 2.7 mph4.3 kmh 25.19 in853.0 mb 0.00 in0.0 mm 0.00 in/hr0.0 mm/hr 0.00 in0.0 mm
04:30 AM 41.0°F5.0°C 33.4°F0.8°C 74% Calm Calm -- 25.19 in853.0 mb 0.00 in0.0 mm 0.00 in/hr0.0 mm/hr 0.00 in0.0 mm
04:35 AM 41.2°F5.1°C 33.6°F0.9°C 74% Calm Calm 3.1 mph5.0 kmh 25.19 in853.0 mb 0.00 in0.0 mm 0.00 in/hr0.0 mm/hr 0.00 in0.0 mm
04:40 AM 41.0°F5.0°C 33.4°F0.8°C 74% Calm Calm 3.1 mph5.0 kmh 25.19 in853.0 mb 0.00 in0.0 mm 0.00 in/hr0.0 mm/hr 0.00 in0.0 mm
04:45 AM 40.6°F4.8°C 33.1°F0.6°C 74% 1.0 mph NNE1.6 kmh NNE 3.1 mph5.0 kmh 25.19 in853.0 mb 0.00 in0.0 mm 0.00 in/hr0.0 mm/hr 0.00 in0.0 mm
04:50 AM 40.5°F4.7°C 33.3°F0.7°C 75% Calm Calm 3.1 mph5.0 kmh 25.19 in853.0 mb 0.00 in0.0 mm 0.00 in/hr0.0 mm/hr 0.00 in0.0 mm
04:55 AM 40.5°F4.7°C 33.3°F0.7°C 75% Calm Calm -- 25.19 in853.0 mb 0.00 in0.0 mm 0.00 in/hr0.0 mm/hr 0.00 in0.0 mm
05:00 AM 40.3°F4.6°C 33.3°F0.7°C 76% Calm Calm -- 25.19 in853.0 mb 0.00 in0.0 mm 0.00 in/hr0.0 mm/hr 0.00 in0.0 mm
05:05 AM 40.3°F4.6°C 33.3°F0.7°C 76% Calm Calm -- 25.19 in853.0 mb 0.00 in0.0 mm 0.00 in/hr0.0 mm/hr 0.00 in0.0 mm
05:10 AM 40.5°F4.7°C 33.8°F1.0°C 77% Calm Calm -- 25.19 in853.0 mb 0.00 in0.0 mm 0.00 in/hr0.0 mm/hr 0.00 in0.0 mm
05:15 AM 40.3°F4.6°C 33.6°F0.9°C 77% Calm Calm -- 25.19 in853.0 mb 0.00 in0.0 mm 0.00 in/hr0.0 mm/hr 0.00 in0.0 mm
05:20 AM 40.5°F4.7°C 33.8°F1.0°C 77% Calm Calm -- 25.19 in853.0 mb 0.00 in0.0 mm 0.00 in/hr0.0 mm/hr 0.00 in0.0 mm
05:25 AM 40.6°F4.8°C 34.0°F1.1°C 77% Calm Calm -- 25.19 in853.0 mb 0.00 in0.0 mm 0.00 in/hr0.0 mm/hr 0.00 in0.0 mm
05:30 AM 40.6°F4.8°C 34.0°F1.1°C 77% Calm Calm -- 25.19 in853.0 mb 0.00 in0.0 mm 0.00 in/hr0.0 mm/hr 0.00 in0.0 mm
05:35 AM 41.0°F5.0°C 34.3°F1.3°C 77% Calm Calm 2.7 mph4.3 kmh 25.19 in853.0 mb 0.00 in0.0 mm 0.00 in/hr0.0 mm/hr 0.00 in0.0 mm
05:40 AM 41.5°F5.3°C 34.9°F1.6°C 77% Calm Calm 2.7 mph4.3 kmh 25.19 in853.0 mb 0.00 in0.0 mm 0.00 in/hr0.0 mm/hr 0.00 in0.0 mm
05:45 AM 41.5°F5.3°C 34.5°F1.4°C 76% Calm Calm 3.1 mph5.0 kmh 25.19 in853.0 mb 0.00 in0.0 mm 0.00 in/hr0.0 mm/hr 0.00 in0.0 mm
05:50 AM 41.9°F5.5°C 34.5°F1.4°C 75% 2.0 mph NNE3.2 kmh NNE 4.0 mph6.4 kmh 25.19 in853.0 mb 0.00 in0.0 mm 0.00 in/hr0.0 mm/hr 0.00 in0.0 mm
05:55 AM 42.4°F5.8°C 34.7°F1.5°C 74% 3.0 mph NNE4.8 kmh NNE 4.0 mph6.4 kmh 25.19 in853.0 mb 0.00 in0.0 mm 0.00 in/hr0.0 mm/hr 0.00 in0.0 mm
06:00 AM 42.8°F6.0°C 34.3°F1.3°C 72% 3.0 mph NNE4.8 kmh NNE 4.0 mph6.4 kmh 25.19 in853.0 mb 0.00 in0.0 mm 0.00 in/hr0.0 mm/hr 0.00 in0.0 mm
06:06 AM 42.8°F6.0°C 34.0°F1.1°C 71% 2.0 mph NNE3.2 kmh NNE 4.5 mph7.2 kmh 25.19 in853.0 mb 0.00 in0.0 mm 0.00 in/hr0.0 mm/hr 0.00 in0.0 mm
06:11 AM 42.8°F6.0°C 33.3°F0.7°C 69% 2.0 mph N3.2 kmh N 4.0 mph6.4 kmh 25.19 in853.0 mb 0.00 in0.0 mm 0.00 in/hr0.0 mm/hr 0.00 in0.0 mm
06:16 AM 42.6°F5.9°C 33.3°F0.7°C 69% 2.0 mph N3.2 kmh N 3.6 mph5.8 kmh 25.19 in853.0 mb 0.00 in0.0 mm 0.00 in/hr0.0 mm/hr 0.00 in0.0 mm
06:21 AM 42.6°F5.9°C 32.7°F0.4°C 68% 2.0 mph N3.2 kmh N 4.9 mph7.9 kmh 25.19 in853.0 mb 0.00 in0.0 mm 0.00 in/hr0.0 mm/hr 0.00 in0.0 mm
06:26 AM 42.4°F5.8°C 32.7°F0.4°C 68% 3.0 mph N4.8 kmh N 4.5 mph7.2 kmh 25.16 in852.0 mb 0.00 in0.0 mm 0.00 in/hr0.0 mm/hr 0.00 in0.0 mm
06:31 AM 42.1°F5.6°C 32.4°F0.2°C 68% 2.0 mph N3.2 kmh N 3.6 mph5.8 kmh 25.16 in852.0 mb 0.00 in0.0 mm 0.00 in/hr0.0 mm/hr 0.00 in0.0 mm
06:36 AM 41.5°F5.3°C 32.5°F0.3°C 70% 2.0 mph N3.2 kmh N 3.6 mph5.8 kmh 25.16 in852.0 mb 0.00 in0.0 mm 0.00 in/hr0.0 mm/hr 0.00 in0.0 mm
06:41 AM 41.0°F5.0°C 32.7°F0.4°C 72% 1.0 mph N1.6 kmh N 3.1 mph5.0 kmh 25.16 in852.0 mb 0.00 in0.0 mm 0.00 in/hr0.0 mm/hr 0.00 in0.0 mm
06:46 AM 40.6°F4.8°C 33.1°F0.6°C 74% 1.0 mph N1.6 kmh N 3.1 mph5.0 kmh 25.16 in852.0 mb 0.00 in0.0 mm 0.00 in/hr0.0 mm/hr 0.00 in0.0 mm
06:51 AM 40.5°F4.7°C 32.9°F0.5°C 74% 1.0 mph N1.6 kmh N 3.6 mph5.8 kmh 25.16 in852.0 mb 0.00 in0.0 mm 0.00 in/hr0.0 mm/hr 0.00 in0.0 mm
06:56 AM 40.5°F4.7°C 33.3°F0.7°C 75% 2.0 mph N3.2 kmh N 3.6 mph5.8 kmh 25.16 in852.0 mb 0.00 in0.0 mm 0.00 in/hr0.0 mm/hr 0.00 in0.0 mm
07:01 AM 40.5°F4.7°C 33.3°F0.7°C 75% 3.0 mph N4.8 kmh N 3.6 mph5.8 kmh 25.16 in852.0 mb 0.00 in0.0 mm 0.00 in/hr0.0 mm/hr 0.00 in0.0 mm
07:06 AM 41.2°F5.1°C 34.2°F1.2°C 76% 3.0 mph N4.8 kmh N 4.0 mph6.4 kmh 25.16 in852.0 mb 0.00 in0.0 mm 0.00 in/hr0.0 mm/hr 0.00 in0.0 mm
07:11 AM 41.0°F5.0°C 33.6°F0.9°C 75% 2.0 mph N3.2 kmh N 4.0 mph6.4 kmh 25.16 in852.0 mb 0.00 in0.0 mm 0.00 in/hr0.0 mm/hr 0.00 in0.0 mm
07:16 AM 40.5°F4.7°C 33.4°F0.8°C 76% 2.0 mph N3.2 kmh N 3.6 mph5.8 kmh 25.16 in852.0 mb 0.00 in0.0 mm 0.00 in/hr0.0 mm/hr 0.00 in0.0 mm
07:21 AM 40.6°F4.8°C 33.6°F0.9°C 76% 2.0 mph N3.2 kmh N 4.0 mph6.4 kmh 25.16 in852.0 mb 0.00 in0.0 mm 0.00 in/hr0.0 mm/hr 0.00 in0.0 mm
07:26 AM 40.8°F4.9°C 33.4°F0.8°C 75% 2.0 mph N3.2 kmh N 4.5 mph7.2 kmh 25.16 in852.0 mb 0.00 in0.0 mm 0.00 in/hr0.0 mm/hr 0.00 in0.0 mm
07:31 AM 41.0°F5.0°C 33.6°F0.9°C 75% 3.0 mph N4.8 kmh N 4.5 mph7.2 kmh 25.16 in852.0 mb 0.00 in0.0 mm 0.00 in/hr0.0 mm/hr 0.00 in0.0 mm
07:36 AM 41.7°F5.4°C 34.0°F1.1°C 74% 3.0 mph N4.8 kmh N 4.5 mph7.2 kmh 25.16 in852.0 mb 0.00 in0.0 mm 0.00 in/hr0.0 mm/hr 0.00 in0.0 mm
07:41 AM 41.9°F5.5°C 33.3°F0.7°C 71% 3.0 mph N4.8 kmh N 5.8 mph9.3 kmh 25.16 in852.0 mb 0.00 in0.0 mm 0.00 in/hr0.0 mm/hr 0.00 in0.0 mm
07:46 AM 41.9°F5.5°C 32.5°F0.3°C 69% 3.0 mph NE4.8 kmh NE 4.5 mph7.2 kmh 25.16 in852.0 mb 0.00 in0.0 mm 0.00 in/hr0.0 mm/hr 0.00 in0.0 mm
07:51 AM 41.5°F5.3°C 31.5°F-0.3°C 67% 2.0 mph NNE3.2 kmh NNE 4.5 mph7.2 kmh 25.16 in852.0 mb 0.00 in0.0 mm 0.00 in/hr0.0 mm/hr 0.00 in0.0 mm
07:56 AM 41.7°F5.4°C 31.6°F-0.2°C 67% 3.0 mph N4.8 kmh N 4.0 mph6.4 kmh 25.16 in852.0 mb 0.00 in0.0 mm 0.00 in/hr0.0 mm/hr 0.00 in0.0 mm
08:01 AM 42.1°F5.6°C 31.1°F-0.5°C 65% 3.0 mph N4.8 kmh N 4.0 mph6.4 kmh 25.16 in852.0 mb 0.00 in0.0 mm 0.00 in/hr0.0 mm/hr 0.00 in0.0 mm
08:06 AM 42.4°F5.8°C 31.1°F-0.5°C 64% 3.0 mph N4.8 kmh N 3.6 mph5.8 kmh 25.16 in852.0 mb 0.00 in0.0 mm 0.00 in/hr0.0 mm/hr 0.00 in0.0 mm
08:11 AM 42.6°F5.9°C 30.6°F-0.8°C 62% 3.0 mph N4.8 kmh N 4.0 mph6.4 kmh 25.16 in852.0 mb 0.00 in0.0 mm 0.00 in/hr0.0 mm/hr 0.00 in0.0 mm
08:16 AM 42.8°F6.0°C 29.8°F-1.2°C 60% 3.0 mph N4.8 kmh N 4.9 mph7.9 kmh 25.16 in852.0 mb 0.00 in0.0 mm 0.00 in/hr0.0 mm/hr 0.00 in0.0 mm
08:21 AM 42.8°F6.0°C 29.5°F-1.4°C 59% 3.0 mph NNE4.8 kmh NNE 4.9 mph7.9 kmh 25.16 in852.0 mb 0.00 in0.0 mm 0.00 in/hr0.0 mm/hr 0.00 in0.0 mm
08:26 AM 42.8°F6.0°C 29.5°F-1.4°C 59% 2.0 mph 3.2 kmh 4.9 mph7.9 kmh 25.16 in852.0 mb 0.00 in0.0 mm 0.00 in/hr0.0 mm/hr 0.00 in0.0 mm
08:31 AM 41.9°F5.5°C 29.5°F-1.4°C 61% 3.0 mph NW4.8 kmh NW 5.4 mph8.7 kmh 25.16 in852.0 mb 0.00 in0.0 mm 0.00 in/hr0.0 mm/hr 0.00 in0.0 mm
08:36 AM 41.2°F5.1°C 30.4°F-0.9°C 65% 3.0 mph NW4.8 kmh NW 5.4 mph8.7 kmh 25.16 in852.0 mb 0.00 in0.0 mm 0.00 in/hr0.0 mm/hr 0.00 in0.0 mm
08:41 AM 41.2°F5.1°C 30.4°F-0.9°C 65% 2.0 mph NW3.2 kmh NW 4.5 mph7.2 kmh 25.13 in851.0 mb 0.00 in0.0 mm 0.00 in/hr0.0 mm/hr 0.00 in0.0 mm
08:46 AM 41.2°F5.1°C 30.4°F-0.9°C 65% 1.0 mph NW1.6 kmh NW 3.6 mph5.8 kmh 25.13 in851.0 mb 0.00 in0.0 mm 0.00 in/hr0.0 mm/hr 0.00 in0.0 mm
08:51 AM 41.5°F5.3°C 30.7°F-0.7°C 65% Calm Calm 4.0 mph6.4 kmh 25.13 in851.0 mb 0.00 in0.0 mm 0.00 in/hr0.0 mm/hr 0.00 in0.0 mm
08:56 AM 41.5°F5.3°C 30.7°F-0.7°C 65% Calm Calm 2.7 mph4.3 kmh 25.13 in851.0 mb 0.00 in0.0 mm 0.00 in/hr0.0 mm/hr 0.00 in0.0 mm
09:01 AM 41.5°F5.3°C 31.1°F-0.5°C 66% Calm Calm -- 25.13 in851.0 mb 0.00 in0.0 mm 0.00 in/hr0.0 mm/hr 0.00 in0.0 mm
09:06 AM 41.4°F5.2°C 31.6°F-0.2°C 68% Calm Calm -- 25.13 in851.0 mb 0.00 in0.0 mm 0.00 in/hr0.0 mm/hr 0.00 in0.0 mm
09:11 AM 41.4°F5.2°C 32.0°F0.0°C 69% Calm Calm -- 25.16 in852.0 mb 0.00 in0.0 mm 0.00 in/hr0.0 mm/hr 0.00 in0.0 mm
09:16 AM 41.0°F5.0°C 31.6°F-0.2°C 69% Calm Calm 3.6 mph5.8 kmh 25.16 in852.0 mb 0.00 in0.0 mm 0.00 in/hr0.0 mm/hr 0.00 in0.0 mm
09:21 AM 40.8°F4.9°C 30.7°F-0.7°C 67% Calm Calm 3.1 mph5.0 kmh 25.16 in852.0 mb 0.00 in0.0 mm 0.00 in/hr0.0 mm/hr 0.00 in0.0 mm
09:26 AM 41.0°F5.0°C 30.9°F-0.6°C 67% Calm Calm 2.7 mph4.3 kmh 25.13 in851.0 mb 0.00 in0.0 mm 0.00 in/hr0.0 mm/hr 0.00 in0.0 mm
09:31 AM 41.0°F5.0°C 30.6°F-0.8°C 66% Calm Calm 3.1 mph5.0 kmh 25.13 in851.0 mb 0.00 in0.0 mm 0.00 in/hr0.0 mm/hr 0.00 in0.0 mm
09:36 AM 41.2°F5.1°C 30.7°F-0.7°C 66% Calm Calm -- 25.13 in851.0 mb 0.00 in0.0 mm 0.00 in/hr0.0 mm/hr 0.00 in0.0 mm
09:41 AM 41.5°F5.3°C 31.5°F-0.3°C 67% Calm Calm 3.6 mph5.8 kmh 25.13 in851.0 mb 0.00 in0.0 mm 0.00 in/hr0.0 mm/hr 0.00 in0.0 mm
09:46 AM 41.5°F5.3°C 31.8°F-0.1°C 68% Calm Calm 3.6 mph5.8 kmh 25.13 in851.0 mb 0.00 in0.0 mm 0.00 in/hr0.0 mm/hr 0.00 in0.0 mm
09:51 AM 41.7°F5.4°C 32.0°F0.0°C 68% 1.0 mph ENE1.6 kmh ENE 3.6 mph5.8 kmh 25.13 in851.0 mb 0.00 in0.0 mm 0.00 in/hr0.0 mm/hr 0.00 in0.0 mm
09:56 AM 41.7°F5.4°C 32.0°F0.0°C 68% 1.0 mph ENE1.6 kmh ENE 4.0 mph6.4 kmh 25.13 in851.0 mb 0.00 in0.0 mm 0.00 in/hr0.0 mm/hr 0.00 in0.0 mm
10:01 AM 42.1°F5.6°C 32.4°F0.2°C 68% 1.0 mph ENE1.6 kmh ENE 3.1 mph5.0 kmh 25.13 in851.0 mb 0.00 in0.0 mm 0.00 in/hr0.0 mm/hr 0.00 in0.0 mm
10:06 AM 42.1°F5.6°C 32.4°F0.2°C 68% Calm Calm 3.1 mph5.0 kmh 25.13 in851.0 mb 0.00 in0.0 mm 0.00 in/hr0.0 mm/hr 0.00 in0.0 mm
10:11 AM 42.4°F5.8°C 32.2°F0.1°C 67% Calm Calm 3.6 mph5.8 kmh 25.13 in851.0 mb 0.00 in0.0 mm 0.00 in/hr0.0 mm/hr 0.00 in0.0 mm
10:16 AM 42.8°F6.0°C 32.5°F0.3°C 67% Calm Calm 3.1 mph5.0 kmh 25.13 in851.0 mb 0.00 in0.0 mm 0.00 in/hr0.0 mm/hr 0.00 in0.0 mm
10:21 AM 43.5°F6.4°C 32.9°F0.5°C 66% 1.0 mph NE1.6 kmh NE 6.3 mph10.1 kmh 25.13 in851.0 mb 0.00 in0.0 mm 0.00 in/hr0.0 mm/hr 0.00 in0.0 mm
10:26 AM 43.9°F6.6°C 32.2°F0.1°C 63% 1.0 mph NE1.6 kmh NE 6.7 mph10.8 kmh 25.13 in851.0 mb 0.00 in0.0 mm 0.00 in/hr0.0 mm/hr 0.00 in0.0 mm
10:31 AM 43.9°F6.6°C 31.3°F-0.4°C 61% 2.0 mph NE3.2 kmh NE 6.3 mph10.1 kmh 25.13 in851.0 mb 0.00 in0.0 mm 0.00 in/hr0.0 mm/hr 0.00 in0.0 mm
10:36 AM 44.1°F6.7°C 31.1°F-0.5°C 60% 2.0 mph NE3.2 kmh NE 7.4 mph11.9 kmh 25.13 in851.0 mb 0.00 in0.0 mm 0.00 in/hr0.0 mm/hr 0.00 in0.0 mm
10:41 AM 44.2°F6.8°C 31.3°F-0.4°C 60% 2.0 mph NE3.2 kmh NE 7.4 mph11.9 kmh 25.13 in851.0 mb 0.00 in0.0 mm 0.00 in/hr0.0 mm/hr 0.00 in0.0 mm
10:46 AM 44.4°F6.9°C 30.9°F-0.6°C 59% 3.0 mph NE4.8 kmh NE 9.2 mph14.8 kmh 25.13 in851.0 mb 0.00 in0.0 mm 0.00 in/hr0.0 mm/hr 0.00 in0.0 mm
10:51 AM 44.6°F7.0°C 31.1°F-0.5°C 59% 4.0 mph NE6.4 kmh NE 9.2 mph14.8 kmh 25.13 in851.0 mb 0.00 in0.0 mm 0.00 in/hr0.0 mm/hr 0.00 in0.0 mm
10:56 AM 44.8°F7.1°C 31.3°F-0.4°C 59% 4.0 mph NE6.4 kmh NE 8.3 mph13.4 kmh 25.13 in851.0 mb 0.00 in0.0 mm 0.00 in/hr0.0 mm/hr 0.00 in0.0 mm
11:01 AM 45.3°F7.4°C 31.8°F-0.1°C 59% 4.0 mph NE6.4 kmh NE 9.2 mph14.8 kmh 25.13 in851.0 mb 0.00 in0.0 mm 0.00 in/hr0.0 mm/hr 0.00 in0.0 mm
11:06 AM 45.1°F7.3°C 31.3°F-0.4°C 58% 6.0 mph NNE9.7 kmh NNE 9.2 mph14.8 kmh 25.13 in851.0 mb 0.00 in0.0 mm 0.00 in/hr0.0 mm/hr 0.00 in0.0 mm
11:11 AM 45.5°F7.5°C 31.6°F-0.2°C 58% 6.0 mph NNE9.7 kmh NNE 9.2 mph14.8 kmh 25.13 in851.0 mb 0.00 in0.0 mm 0.00 in/hr0.0 mm/hr 0.00 in0.0 mm
11:16 AM 45.3°F7.4°C 31.8°F-0.1°C 59% 6.0 mph NNE9.7 kmh NNE 10.1 mph16.3 kmh 25.13 in851.0 mb 0.00 in0.0 mm 0.00 in/hr0.0 mm/hr 0.00 in0.0 mm
11:21 AM 45.1°F7.3°C 31.6°F-0.2°C 59% 6.0 mph NNE9.7 kmh NNE 10.5 mph16.9 kmh 25.13 in851.0 mb 0.00 in0.0 mm 0.00 in/hr0.0 mm/hr 0.00 in0.0 mm
11:26 AM 45.3°F7.4°C 31.5°F-0.3°C 58% 6.0 mph NNE9.7 kmh NNE 8.7 mph14.0 kmh 25.13 in851.0 mb 0.00 in0.0 mm 0.00 in/hr0.0 mm/hr 0.00 in0.0 mm
11:31 AM 45.3°F7.4°C 31.5°F-0.3°C 58% 5.0 mph NNE8.0 kmh NNE 7.8 mph12.6 kmh 25.13 in851.0 mb 0.00 in0.0 mm 0.00 in/hr0.0 mm/hr 0.00 in0.0 mm
11:36 AM 45.5°F7.5°C 31.1°F-0.5°C 57% 5.0 mph NNE8.0 kmh NNE 8.3 mph13.4 kmh 25.13 in851.0 mb 0.00 in0.0 mm 0.00 in/hr0.0 mm/hr 0.00 in0.0 mm
11:41 AM 45.9°F7.7°C 31.5°F-0.3°C 57% 5.0 mph NNE8.0 kmh NNE 8.7 mph14.0 kmh 25.10 in850.0 mb 0.00 in0.0 mm 0.00 in/hr0.0 mm/hr 0.00 in0.0 mm
11:46 AM 45.9°F7.7°C 31.1°F-0.5°C 56% 6.0 mph NNE9.7 kmh NNE 8.7 mph14.0 kmh 25.10 in850.0 mb 0.00 in0.0 mm 0.00 in/hr0.0 mm/hr 0.00 in0.0 mm
11:51 AM 45.5°F7.5°C 30.2°F-1.0°C 55% 6.0 mph N9.7 kmh N 9.2 mph14.8 kmh 25.10 in850.0 mb 0.00 in0.0 mm 0.00 in/hr0.0 mm/hr 0.00 in0.0 mm
11:56 AM 45.9°F7.7°C 31.1°F-0.5°C 56% 6.0 mph N9.7 kmh N 8.3 mph13.4 kmh 25.10 in850.0 mb 0.00 in0.0 mm 0.00 in/hr0.0 mm/hr 0.00 in0.0 mm
12:01 PM 45.7°F7.6°C 30.9°F-0.6°C 56% 5.0 mph 8.0 kmh 7.8 mph12.6 kmh 25.10 in850.0 mb 0.00 in0.0 mm 0.00 in/hr0.0 mm/hr 0.00 in0.0 mm
12:06 PM 45.3°F7.4°C 30.9°F-0.6°C 57% 5.0 mph N8.0 kmh N 8.3 mph13.4 kmh 25.10 in850.0 mb 0.00 in0.0 mm 0.00 in/hr0.0 mm/hr 0.00 in0.0 mm
12:11 PM 45.3°F7.4°C 31.5°F-0.3°C 58% 5.0 mph N8.0 kmh N 6.3 mph10.1 kmh 25.10 in850.0 mb 0.00 in0.0 mm 0.00 in/hr0.0 mm/hr 0.00 in0.0 mm
12:16 PM 45.5°F7.5°C 31.6°F-0.2°C 58% 4.0 mph N6.4 kmh N 5.8 mph9.3 kmh 25.10 in850.0 mb 0.00 in0.0 mm 0.00 in/hr0.0 mm/hr 0.00 in0.0 mm
12:21 PM 45.7°F7.6°C 32.2°F0.1°C 59% 4.0 mph 6.4 kmh 8.3 mph13.4 kmh 25.10 in850.0 mb 0.00 in0.0 mm 0.00 in/hr0.0 mm/hr 0.00 in0.0 mm
12:26 PM 45.5°F7.5°C 32.0°F0.0°C 59% 5.0 mph N8.0 kmh N 7.8 mph12.6 kmh 25.10 in850.0 mb 0.00 in0.0 mm 0.00 in/hr0.0 mm/hr 0.00 in0.0 mm
12:31 PM 45.5°F7.5°C 32.0°F0.0°C 59% 5.0 mph N8.0 kmh N 6.9 mph11.1 kmh 25.10 in850.0 mb 0.00 in0.0 mm 0.00 in/hr0.0 mm/hr 0.00 in0.0 mm
12:36 PM 45.3°F7.4°C 31.8°F-0.1°C 59% 5.0 mph N8.0 kmh N 6.9 mph11.1 kmh 25.10 in850.0 mb 0.00 in0.0 mm 0.00 in/hr0.0 mm/hr 0.00 in0.0 mm
12:41 PM 45.3°F7.4°C 31.8°F-0.1°C 59% 4.0 mph N6.4 kmh N 7.4 mph11.9 kmh 25.07 in849.0 mb 0.00 in0.0 mm 0.00 in/hr0.0 mm/hr 0.00 in0.0 mm
12:46 PM 45.5°F7.5°C 31.6°F-0.2°C 58% 4.0 mph N6.4 kmh N 8.3 mph13.4 kmh 25.07 in849.0 mb 0.00 in0.0 mm 0.00 in/hr0.0 mm/hr 0.00 in0.0 mm
12:51 PM 46.0°F7.8°C 32.2°F0.1°C 58% 5.0 mph N8.0 kmh N 7.4 mph11.9 kmh 25.07 in849.0 mb 0.00 in0.0 mm 0.00 in/hr0.0 mm/hr 0.00 in0.0 mm
12:56 PM 45.9°F7.7°C 31.5°F-0.3°C 57% 6.0 mph N9.7 kmh N 8.7 mph14.0 kmh 25.07 in849.0 mb 0.00 in0.0 mm 0.00 in/hr0.0 mm/hr 0.00 in0.0 mm
01:01 PM 46.0°F7.8°C 31.6°F-0.2°C 57% 6.0 mph N9.7 kmh N 9.2 mph14.8 kmh 25.07 in849.0 mb 0.00 in0.0 mm 0.00 in/hr0.0 mm/hr 0.00 in0.0 mm
01:06 PM 46.2°F7.9°C 32.2°F0.1°C 58% 6.0 mph NNE9.7 kmh NNE 8.7 mph14.0 kmh 25.07 in849.0 mb 0.00 in0.0 mm 0.00 in/hr0.0 mm/hr 0.00 in0.0 mm
01:11 PM 46.0°F7.8°C 32.5°F0.3°C 59% 6.0 mph NNE9.7 kmh NNE 8.7 mph14.0 kmh 25.07 in849.0 mb 0.00 in0.0 mm 0.00 in/hr0.0 mm/hr 0.00 in0.0 mm
01:16 PM 45.9°F7.7°C 32.4°F0.2°C 59% 6.0 mph N9.7 kmh N 7.4 mph11.9 kmh 25.07 in849.0 mb 0.00 in0.0 mm 0.00 in/hr0.0 mm/hr 0.00 in0.0 mm
01:21 PM 45.5°F7.5°C 32.4°F0.2°C 60% 4.0 mph N6.4 kmh N 6.3 mph10.1 kmh 25.07 in849.0 mb 0.00 in0.0 mm 0.00 in/hr0.0 mm/hr 0.00 in0.0 mm
01:26 PM 45.5°F7.5°C 33.6°F0.9°C 63% 4.0 mph NW6.4 kmh NW 6.3 mph10.1 kmh 25.04 in848.0 mb 0.00 in0.0 mm 0.00 in/hr0.0 mm/hr 0.00 in0.0 mm
01:31 PM 45.3°F7.4°C 34.3°F1.3°C 65% 4.0 mph W6.4 kmh W 4.5 mph7.2 kmh 25.04 in848.0 mb 0.00 in0.0 mm 0.00 in/hr0.0 mm/hr 0.00 in0.0 mm
01:36 PM 45.5°F7.5°C 34.3°F1.3°C 65% 3.0 mph NW4.8 kmh NW 6.3 mph10.1 kmh 25.04 in848.0 mb 0.00 in0.0 mm 0.00 in/hr0.0 mm/hr 0.00 in0.0 mm
01:41 PM 45.3°F7.4°C 34.7°F1.5°C 66% 4.0 mph NNW6.4 kmh NNW 5.8 mph9.3 kmh 25.04 in848.0 mb 0.00 in0.0 mm 0.00 in/hr0.0 mm/hr 0.00 in0.0 mm
01:46 PM 45.3°F7.4°C 35.1°F1.7°C 67% 3.0 mph N4.8 kmh N 5.4 mph8.7 kmh 25.04 in848.0 mb 0.00 in0.0 mm 0.00 in/hr0.0 mm/hr 0.00 in0.0 mm
01:51 PM 45.3°F7.4°C 35.4°F1.9°C 68% 1.0 mph N1.6 kmh N 5.4 mph8.7 kmh 25.04 in848.0 mb 0.00 in0.0 mm 0.00 in/hr0.0 mm/hr 0.00 in0.0 mm
01:56 PM 45.3°F7.4°C 35.8°F2.1°C 69% 1.0 mph NNE1.6 kmh NNE 4.9 mph7.9 kmh 25.04 in848.0 mb 0.00 in0.0 mm 0.00 in/hr0.0 mm/hr 0.00 in0.0 mm
02:01 PM 45.3°F7.4°C 36.1°F2.3°C 70% 1.0 mph E1.6 kmh E 3.1 mph5.0 kmh 25.04 in848.0 mb 0.00 in0.0 mm 0.00 in/hr0.0 mm/hr 0.00 in0.0 mm
02:06 PM 45.1°F7.3°C 36.3°F2.4°C 71% Calm Calm 4.5 mph7.2 kmh 25.04 in848.0 mb 0.00 in0.0 mm 0.00 in/hr0.0 mm/hr 0.00 in0.0 mm
02:11 PM 45.1°F7.3°C 36.3°F2.4°C 71% 1.0 mph N1.6 kmh N 4.9 mph7.9 kmh 25.04 in848.0 mb 0.00 in0.0 mm 0.00 in/hr0.0 mm/hr 0.00 in0.0 mm
02:16 PM 45.0°F7.2°C 36.5°F2.5°C 72% 1.0 mph N1.6 kmh N 5.4 mph8.7 kmh 25.04 in848.0 mb 0.00 in0.0 mm 0.00 in/hr0.0 mm/hr 0.00 in0.0 mm
02:22 PM 44.8°F7.1°C 36.3°F2.4°C 72% 1.0 mph N1.6 kmh N 5.4 mph8.7 kmh 25.04 in848.0 mb 0.00 in0.0 mm 0.00 in/hr0.0 mm/hr 0.00 in0.0 mm
02:27 PM 44.8°F7.1°C 36.7°F2.6°C 73% 1.0 mph N1.6 kmh N 4.9 mph7.9 kmh 25.04 in848.0 mb 0.00 in0.0 mm 0.00 in/hr0.0 mm/hr 0.00 in0.0 mm
02:32 PM 44.6°F7.0°C 36.5°F2.5°C 73% Calm Calm 2.7 mph4.3 kmh 25.04 in848.0 mb 0.00 in0.0 mm 0.00 in/hr0.0 mm/hr 0.00 in0.0 mm
02:37 PM 44.6°F7.0°C 36.9°F2.7°C 74% Calm Calm 3.1 mph5.0 kmh 25.04 in848.0 mb 0.00 in0.0 mm 0.00 in/hr0.0 mm/hr 0.00 in0.0 mm
02:42 PM 44.6°F7.0°C 36.9°F2.7°C 74% Calm Calm 3.6 mph5.8 kmh 25.04 in848.0 mb 0.00 in0.0 mm 0.00 in/hr0.0 mm/hr 0.00 in0.0 mm
02:47 PM 44.4°F6.9°C 37.0°F2.8°C 75% 1.0 mph N1.6 kmh N 5.4 mph8.7 kmh 25.04 in848.0 mb 0.00 in0.0 mm 0.00 in/hr0.0 mm/hr 0.00 in0.0 mm
02:52 PM 44.4°F6.9°C 37.4°F3.0°C 76% 2.0 mph N3.2 kmh N 3.6 mph5.8 kmh 25.04 in848.0 mb 0.00 in0.0 mm 0.00 in/hr0.0 mm/hr 0.00 in0.0 mm
02:57 PM 44.2°F6.8°C 37.6°F3.1°C 77% 2.0 mph N3.2 kmh N 4.5 mph7.2 kmh 25.04 in848.0 mb 0.00 in0.0 mm 0.00 in/hr0.0 mm/hr 0.00 in0.0 mm
03:02 PM 44.1°F6.7°C 37.4°F3.0°C 77% 2.0 mph N3.2 kmh N 4.9 mph7.9 kmh 25.04 in848.0 mb 0.00 in0.0 mm 0.00 in/hr0.0 mm/hr 0.00 in0.0 mm
03:07 PM 44.2°F6.8°C 37.8°F3.2°C 78% 2.0 mph N3.2 kmh N 4.5 mph7.2 kmh 25.04 in848.0 mb 0.00 in0.0 mm 0.00 in/hr0.0 mm/hr 0.00 in0.0 mm
03:12 PM 44.1°F6.7°C 37.9°F3.3°C 79% 3.0 mph N4.8 kmh N 4.9 mph7.9 kmh 25.04 in848.0 mb 0.00 in0.0 mm 0.00 in/hr0.0 mm/hr 0.00 in0.0 mm
03:17 PM 44.1°F6.7°C 38.3°F3.5°C 80% 2.0 mph N3.2 kmh N 4.5 mph7.2 kmh 25.04 in848.0 mb 0.00 in0.0 mm 0.00 in/hr0.0 mm/hr 0.00 in0.0 mm
03:22 PM 43.9°F6.6°C 38.5°F3.6°C 81% 2.0 mph NNE3.2 kmh NNE 5.4 mph8.7 kmh 25.04 in848.0 mb 0.00 in0.0 mm 0.00 in/hr0.0 mm/hr 0.00 in0.0 mm
03:27 PM 43.9°F6.6°C 38.7°F3.7°C 82% 2.0 mph NNE3.2 kmh NNE 4.5 mph7.2 kmh 25.04 in848.0 mb 0.00 in0.0 mm 0.00 in/hr0.0 mm/hr 0.00 in0.0 mm
03:32 PM 43.7°F6.5°C 38.8°F3.8°C 83% 2.0 mph NNE3.2 kmh NNE 4.9 mph7.9 kmh 25.04 in848.0 mb 0.00 in0.0 mm 0.00 in/hr0.0 mm/hr 0.00 in0.0 mm
03:37 PM 43.9°F6.6°C 39.4°F4.1°C 84% 3.0 mph NNE4.8 kmh NNE 4.9 mph7.9 kmh 25.04 in848.0 mb 0.00 in0.0 mm 0.00 in/hr0.0 mm/hr 0.00 in0.0 mm
03:42 PM 43.7°F6.5°C 39.6°F4.2°C 85% 2.0 mph NNE3.2 kmh NNE 4.0 mph6.4 kmh 25.04 in848.0 mb 0.00 in0.0 mm 0.00 in/hr0.0 mm/hr 0.00 in0.0 mm
03:47 PM 43.5°F6.4°C 39.4°F4.1°C 85% 2.0 mph NE3.2 kmh NE 5.4 mph8.7 kmh 25.04 in848.0 mb 0.00 in0.0 mm 0.00 in/hr0.0 mm/hr 0.00 in0.0 mm
03:52 PM 43.5°F6.4°C 39.4°F4.1°C 85% 3.0 mph NE4.8 kmh NE 5.4 mph8.7 kmh 25.04 in848.0 mb 0.00 in0.0 mm 0.00 in/hr0.0 mm/hr 0.00 in0.0 mm
03:57 PM 43.5°F6.4°C 39.6°F4.2°C 86% 3.0 mph NE4.8 kmh NE 6.3 mph10.1 kmh 25.04 in848.0 mb 0.00 in0.0 mm 0.00 in/hr0.0 mm/hr 0.00 in0.0 mm
04:02 PM 43.3°F6.3°C 39.7°F4.3°C 87% 3.0 mph NE4.8 kmh NE 5.4 mph8.7 kmh 25.04 in848.0 mb 0.00 in0.0 mm 0.00 in/hr0.0 mm/hr 0.00 in0.0 mm
04:07 PM 43.3°F6.3°C 39.7°F4.3°C 87% 3.0 mph NE4.8 kmh NE 6.3 mph10.1 kmh 25.04 in848.0 mb 0.00 in0.0 mm 0.00 in/hr0.0 mm/hr 0.00 in0.0 mm
04:12 PM 43.2°F6.2°C 39.9°F4.4°C 88% 3.0 mph NE4.8 kmh NE 5.4 mph8.7 kmh 25.01 in846.9 mb 0.00 in0.0 mm 0.00 in/hr0.0 mm/hr 0.00 in0.0 mm
04:17 PM 43.2°F6.2°C 39.9°F4.4°C 88% 3.0 mph NE4.8 kmh NE 5.8 mph9.3 kmh 25.01 in846.9 mb 0.00 in0.0 mm 0.00 in/hr0.0 mm/hr 0.00 in0.0 mm
04:22 PM 43.2°F6.2°C 40.1°F4.5°C 89% 3.0 mph NE4.8 kmh NE 4.9 mph7.9 kmh 25.01 in846.9 mb 0.00 in0.0 mm 0.00 in/hr0.0 mm/hr 0.00 in0.0 mm
04:27 PM 43.3°F6.3°C 40.3°F4.6°C 89% 2.0 mph NE3.2 kmh NE 4.0 mph6.4 kmh 25.01 in846.9 mb 0.00 in0.0 mm 0.00 in/hr0.0 mm/hr 0.00 in0.0 mm
04:32 PM 43.3°F6.3°C 40.6°F4.8°C 90% 2.0 mph NE3.2 kmh NE 4.5 mph7.2 kmh 25.01 in846.9 mb 0.00 in0.0 mm 0.00 in/hr0.0 mm/hr 0.00 in0.0 mm
04:37 PM 43.3°F6.3°C 40.6°F4.8°C 90% 1.0 mph NE1.6 kmh NE 3.1 mph5.0 kmh 25.01 in846.9 mb 0.00 in0.0 mm 0.00 in/hr0.0 mm/hr 0.00 in0.0 mm
04:42 PM 43.2°F6.2°C 40.5°F4.7°C 90% Calm Calm 3.1 mph5.0 kmh 25.01 in846.9 mb 0.00 in0.0 mm 0.00 in/hr0.0 mm/hr 0.00 in0.0 mm
04:47 PM 43.2°F6.2°C 40.5°F4.7°C 90% Calm Calm 3.1 mph5.0 kmh 25.01 in846.9 mb 0.00 in0.0 mm 0.00 in/hr0.0 mm/hr 0.00 in0.0 mm
04:52 PM 43.0°F6.1°C 40.3°F4.6°C 90% 1.0 mph NE1.6 kmh NE 4.5 mph7.2 kmh 25.01 in846.9 mb 0.00 in0.0 mm 0.00 in/hr0.0 mm/hr 0.00 in0.0 mm
04:57 PM 42.8°F6.0°C 40.1°F4.5°C 90% 2.0 mph NE3.2 kmh NE 5.4 mph8.7 kmh 25.01 in846.9 mb 0.00 in0.0 mm 0.00 in/hr0.0 mm/hr 0.00 in0.0 mm
05:02 PM 42.4°F5.8°C 39.7°F4.3°C 90% 3.0 mph NE4.8 kmh NE 4.5 mph7.2 kmh 25.01 in846.9 mb 0.00 in0.0 mm 0.00 in/hr0.0 mm/hr 0.00 in0.0 mm
05:07 PM 42.6°F5.9°C 39.9°F4.4°C 90% 3.0 mph NE4.8 kmh NE 5.4 mph8.7 kmh 25.01 in846.9 mb 0.00 in0.0 mm 0.00 in/hr0.0 mm/hr 0.00 in0.0 mm
05:12 PM 42.4°F5.8°C 39.7°F4.3°C 90% 3.0 mph NE4.8 kmh NE 4.5 mph7.2 kmh 25.01 in846.9 mb 0.00 in0.0 mm 0.00 in/hr0.0 mm/hr 0.00 in0.0 mm
05:17 PM 42.4°F5.8°C 39.4°F4.1°C 89% 3.0 mph NE4.8 kmh NE 4.5 mph7.2 kmh 25.01 in846.9 mb 0.00 in0.0 mm 0.00 in/hr0.0 mm/hr 0.00 in0.0 mm
05:22 PM 42.4°F5.8°C 39.4°F4.1°C 89% 3.0 mph NE4.8 kmh NE 4.9 mph7.9 kmh 25.01 in846.9 mb 0.00 in0.0 mm 0.00 in/hr0.0 mm/hr 0.00 in0.0 mm
05:27 PM 42.4°F5.8°C 39.4°F4.1°C 89% 3.0 mph NE4.8 kmh NE 4.5 mph7.2 kmh 25.01 in846.9 mb 0.00 in0.0 mm 0.00 in/hr0.0 mm/hr 0.00 in0.0 mm
05:32 PM 42.6°F5.9°C 39.6°F4.2°C 89% 3.0 mph NE4.8 kmh NE 4.5 mph7.2 kmh 25.01 in846.9 mb 0.00 in0.0 mm 0.00 in/hr0.0 mm/hr 0.00 in0.0 mm
05:37 PM 42.6°F5.9°C 39.6°F4.2°C 89% 3.0 mph NE4.8 kmh NE 4.0 mph6.4 kmh 25.01 in846.9 mb 0.00 in0.0 mm 0.00 in/hr0.0 mm/hr 0.00 in0.0 mm
05:42 PM 42.4°F5.8°C 39.4°F4.1°C 89% 3.0 mph NE4.8 kmh NE 4.9 mph7.9 kmh 25.01 in846.9 mb 0.00 in0.0 mm 0.00 in/hr0.0 mm/hr 0.00 in0.0 mm
05:47 PM 42.3°F5.7°C 39.0°F3.9°C 88% 4.0 mph NE6.4 kmh NE 4.9 mph7.9 kmh 25.01 in846.9 mb 0.00 in0.0 mm 0.00 in/hr0.0 mm/hr 0.00 in0.0 mm
05:52 PM 42.3°F5.7°C 39.0°F3.9°C 88% 3.0 mph NE4.8 kmh NE 4.9 mph7.9 kmh 25.01 in846.9 mb 0.00 in0.0 mm 0.00 in/hr0.0 mm/hr 0.00 in0.0 mm
05:57 PM 42.4°F5.8°C 39.2°F4.0°C 88% 3.0 mph NE4.8 kmh NE 4.5 mph7.2 kmh 25.01 in846.9 mb 0.00 in0.0 mm 0.00 in/hr0.0 mm/hr 0.00 in0.0 mm
06:02 PM 42.3°F5.7°C 39.0°F3.9°C 88% 3.0 mph NE4.8 kmh NE 4.0 mph6.4 kmh 25.01 in846.9 mb 0.00 in0.0 mm 0.00 in/hr0.0 mm/hr 0.00 in0.0 mm
06:07 PM 42.3°F5.7°C 39.0°F3.9°C 88% 3.0 mph NE4.8 kmh NE 4.9 mph7.9 kmh 25.01 in846.9 mb 0.00 in0.0 mm 0.00 in/hr0.0 mm/hr 0.00 in0.0 mm
06:12 PM 42.3°F5.7°C 38.7°F3.7°C 87% 3.0 mph NE4.8 kmh NE 4.0 mph6.4 kmh 25.01 in846.9 mb 0.00 in0.0 mm 0.00 in/hr0.0 mm/hr 0.00 in0.0 mm
06:17 PM 42.1°F5.6°C 38.5°F3.6°C 87% 3.0 mph NE4.8 kmh NE 4.0 mph6.4 kmh 25.01 in846.9 mb 0.00 in0.0 mm 0.00 in/hr0.0 mm/hr 0.00 in0.0 mm
06:22 PM 42.1°F5.6°C 38.5°F3.6°C 87% 2.0 mph NE3.2 kmh NE 3.6 mph5.8 kmh 25.01 in846.9 mb 0.00 in0.0 mm 0.00 in/hr0.0 mm/hr 0.00 in0.0 mm
06:27 PM 42.1°F5.6°C 38.5°F3.6°C 87% 3.0 mph NE4.8 kmh NE 4.0 mph6.4 kmh 25.01 in846.9 mb 0.00 in0.0 mm 0.00 in/hr0.0 mm/hr 0.00 in0.0 mm
06:32 PM 42.1°F5.6°C 38.5°F3.6°C 87% 3.0 mph NE4.8 kmh NE 4.0 mph6.4 kmh 25.01 in846.9 mb 0.00 in0.0 mm 0.00 in/hr0.0 mm/hr 0.00 in0.0 mm
06:37 PM 41.9°F5.5°C 38.3°F3.5°C 87% 2.0 mph NE3.2 kmh NE 4.5 mph7.2 kmh 25.01 in846.9 mb 0.00 in0.0 mm 0.00 in/hr0.0 mm/hr 0.00 in0.0 mm
06:42 PM 41.7°F5.4°C 38.1°F3.4°C 87% 2.0 mph NE3.2 kmh NE 4.5 mph7.2 kmh 24.98 in845.9 mb 0.00 in0.0 mm 0.00 in/hr0.0 mm/hr 0.00 in0.0 mm
06:47 PM 41.7°F5.4°C 38.1°F3.4°C 87% 3.0 mph NE4.8 kmh NE 4.5 mph7.2 kmh 24.98 in845.9 mb 0.00 in0.0 mm 0.00 in/hr0.0 mm/hr 0.00 in0.0 mm
06:52 PM 41.5°F5.3°C 38.3°F3.5°C 88% 3.0 mph NE4.8 kmh NE 5.4 mph8.7 kmh 24.98 in845.9 mb 0.00 in0.0 mm 0.00 in/hr0.0 mm/hr 0.00 in0.0 mm
06:57 PM 41.4°F5.2°C 38.1°F3.4°C 88% 3.0 mph NE4.8 kmh NE 4.9 mph7.9 kmh 24.98 in845.9 mb 0.00 in0.0 mm 0.00 in/hr0.0 mm/hr 0.00 in0.0 mm
07:02 PM 41.4°F5.2°C 38.1°F3.4°C 88% 3.0 mph NE4.8 kmh NE 4.9 mph7.9 kmh 24.98 in845.9 mb 0.00 in0.0 mm 0.00 in/hr0.0 mm/hr 0.00 in0.0 mm
07:07 PM 41.2°F5.1°C 37.9°F3.3°C 88% 3.0 mph NE4.8 kmh NE 5.4 mph8.7 kmh 24.98 in845.9 mb 0.00 in0.0 mm 0.00 in/hr0.0 mm/hr 0.00 in0.0 mm
07:12 PM 41.2°F5.1°C 37.9°F3.3°C 88% 3.0 mph NE4.8 kmh NE 5.4 mph8.7 kmh 24.98 in845.9 mb 0.00 in0.0 mm 0.00 in/hr0.0 mm/hr 0.00 in0.0 mm
07:17 PM 41.2°F5.1°C 37.9°F3.3°C 88% 3.0 mph NE4.8 kmh NE 4.5 mph7.2 kmh 24.98 in845.9 mb 0.00 in0.0 mm 0.00 in/hr0.0 mm/hr 0.00 in0.0 mm
07:22 PM 41.0°F5.0°C 37.8°F3.2°C 88% 2.0 mph NE3.2 kmh NE 4.5 mph7.2 kmh 24.98 in845.9 mb 0.00 in0.0 mm 0.00 in/hr0.0 mm/hr 0.00 in0.0 mm
07:27 PM 41.0°F5.0°C 37.9°F3.3°C 89% 2.0 mph NNE3.2 kmh NNE 4.5 mph7.2 kmh 24.98 in845.9 mb 0.00 in0.0 mm 0.00 in/hr0.0 mm/hr 0.00 in0.0 mm
07:32 PM 40.8°F4.9°C 37.8°F3.2°C 89% 3.0 mph NNE4.8 kmh NNE 4.5 mph7.2 kmh 24.98 in845.9 mb 0.00 in0.0 mm 0.00 in/hr0.0 mm/hr 0.00 in0.0 mm
07:37 PM 41.0°F5.0°C 37.9°F3.3°C 89% 3.0 mph NE4.8 kmh NE 4.9 mph7.9 kmh 24.98 in845.9 mb 0.00 in0.0 mm 0.00 in/hr0.0 mm/hr 0.00 in0.0 mm
07:42 PM 41.0°F5.0°C 37.9°F3.3°C 89% 3.0 mph NE4.8 kmh NE 4.5 mph7.2 kmh 24.98 in845.9 mb 0.00 in0.0 mm 0.00 in/hr0.0 mm/hr 0.00 in0.0 mm
07:47 PM 41.0°F5.0°C 37.9°F3.3°C 89% 3.0 mph NE4.8 kmh NE 5.4 mph8.7 kmh 24.98 in845.9 mb 0.00 in0.0 mm 0.00 in/hr0.0 mm/hr 0.00 in0.0 mm
07:52 PM 41.0°F5.0°C 37.9°F3.3°C 89% 3.0 mph NE4.8 kmh NE 4.9 mph7.9 kmh 24.98 in845.9 mb 0.00 in0.0 mm 0.00 in/hr0.0 mm/hr 0.00 in0.0 mm
07:57 PM 41.0°F5.0°C 37.9°F3.3°C 89% 3.0 mph NE4.8 kmh NE 4.5 mph7.2 kmh 24.98 in845.9 mb 0.00 in0.0 mm 0.00 in/hr0.0 mm/hr 0.00 in0.0 mm
08:02 PM 40.8°F4.9°C 37.8°F3.2°C 89% 3.0 mph NE4.8 kmh NE 4.5 mph7.2 kmh 24.98 in845.9 mb 0.00 in0.0 mm 0.00 in/hr0.0 mm/hr 0.00 in0.0 mm
08:07 PM 40.8°F4.9°C 37.8°F3.2°C 89% 3.0 mph NE4.8 kmh NE 4.9 mph7.9 kmh 24.98 in845.9 mb 0.00 in0.0 mm 0.00 in/hr0.0 mm/hr 0.00 in0.0 mm
08:12 PM 40.6°F4.8°C 37.6°F3.1°C 89% 3.0 mph NE4.8 kmh NE 4.5 mph7.2 kmh 24.98 in845.9 mb 0.00 in0.0 mm 0.00 in/hr0.0 mm/hr 0.00 in0.0 mm
08:17 PM 40.6°F4.8°C 37.9°F3.3°C 90% 2.0 mph NE3.2 kmh NE 4.5 mph7.2 kmh 24.98 in845.9 mb 0.00 in0.0 mm 0.00 in/hr0.0 mm/hr 0.00 in0.0 mm
08:22 PM 40.6°F4.8°C 37.9°F3.3°C 90% 2.0 mph NE3.2 kmh NE 3.6 mph5.8 kmh 24.98 in845.9 mb 0.00 in0.0 mm 0.00 in/hr0.0 mm/hr 0.00 in0.0 mm
08:27 PM 40.6°F4.8°C 37.9°F3.3°C 90% 2.0 mph NE3.2 kmh NE 4.9 mph7.9 kmh 24.98 in845.9 mb 0.00 in0.0 mm 0.00 in/hr0.0 mm/hr 0.00 in0.0 mm
08:32 PM 40.6°F4.8°C 37.9°F3.3°C 90% 3.0 mph NE4.8 kmh NE 4.5 mph7.2 kmh 24.98 in845.9 mb 0.00 in0.0 mm 0.00 in/hr0.0 mm/hr 0.00 in0.0 mm
08:37 PM 40.5°F4.7°C 37.8°F3.2°C 90% 2.0 mph NE3.2 kmh NE 3.6 mph5.8 kmh 24.98 in845.9 mb 0.00 in0.0 mm 0.00 in/hr0.0 mm/hr 0.00 in0.0 mm
08:42 PM 40.5°F4.7°C 37.8°F3.2°C 90% 2.0 mph NE3.2 kmh NE 3.6 mph5.8 kmh 24.98 in845.9 mb 0.00 in0.0 mm 0.00 in/hr0.0 mm/hr 0.00 in0.0 mm
08:47 PM 40.5°F4.7°C 37.8°F3.2°C 90% 1.0 mph NE1.6 kmh NE 3.6 mph5.8 kmh 24.98 in845.9 mb 0.00 in0.0 mm 0.00 in/hr0.0 mm/hr 0.00 in0.0 mm
08:53 PM 40.5°F4.7°C 37.8°F3.2°C 90% Calm Calm -- 24.98 in845.9 mb 0.00 in0.0 mm 0.00 in/hr0.0 mm/hr 0.00 in0.0 mm
08:58 PM 40.5°F4.7°C 37.8°F3.2°C 90% Calm Calm -- 24.98 in845.9 mb 0.00 in0.0 mm 0.00 in/hr0.0 mm/hr 0.00 in0.0 mm
09:03 PM 40.5°F4.7°C 37.8°F3.2°C 90% Calm Calm -- 24.98 in845.9 mb 0.00 in0.0 mm 0.00 in/hr0.0 mm/hr 0.00 in0.0 mm
09:08 PM 40.5°F4.7°C 37.8°F3.2°C 90% Calm Calm -- 24.98 in845.9 mb 0.00 in0.0 mm 0.00 in/hr0.0 mm/hr 0.00 in0.0 mm
09:13 PM 40.3°F4.6°C 37.9°F3.3°C 91% Calm Calm -- 24.98 in845.9 mb 0.00 in0.0 mm 0.00 in/hr0.0 mm/hr 0.00 in0.0 mm
09:18 PM 40.3°F4.6°C 37.9°F3.3°C 91% Calm Calm -- 24.98 in845.9 mb 0.00 in0.0 mm 0.00 in/hr0.0 mm/hr 0.00 in0.0 mm
09:23 PM 40.3°F4.6°C 37.9°F3.3°C 91% Calm Calm -- 24.98 in845.9 mb 0.00 in0.0 mm 0.00 in/hr0.0 mm/hr 0.00 in0.0 mm
09:28 PM 40.3°F4.6°C 37.9°F3.3°C 91% Calm Calm -- 24.98 in845.9 mb 0.00 in0.0 mm 0.00 in/hr0.0 mm/hr 0.00 in0.0 mm
09:33 PM 40.3°F4.6°C 37.9°F3.3°C 91% Calm Calm -- 24.98 in845.9 mb 0.00 in0.0 mm 0.00 in/hr0.0 mm/hr 0.00 in0.0 mm
09:38 PM 40.3°F4.6°C 37.9°F3.3°C 91% Calm Calm -- 24.98 in845.9 mb 0.00 in0.0 mm 0.00 in/hr0.0 mm/hr 0.00 in0.0 mm
09:43 PM 40.3°F4.6°C 37.9°F3.3°C 91% Calm Calm 2.7 mph4.3 kmh 24.98 in845.9 mb 0.00 in0.0 mm 0.00 in/hr0.0 mm/hr 0.00 in0.0 mm
09:48 PM 40.3°F4.6°C 37.9°F3.3°C 91% Calm Calm -- 24.98 in845.9 mb 0.00 in0.0 mm 0.00 in/hr0.0 mm/hr 0.00 in0.0 mm
09:53 PM 40.3°F4.6°C 38.1°F3.4°C 92% Calm Calm -- 24.98 in845.9 mb 0.00 in0.0 mm 0.00 in/hr0.0 mm/hr 0.00 in0.0 mm
09:58 PM 40.1°F4.5°C 37.9°F3.3°C 92% Calm Calm -- 24.98 in845.9 mb 0.00 in0.0 mm 0.00 in/hr0.0 mm/hr 0.00 in0.0 mm
10:03 PM 40.1°F4.5°C 37.9°F3.3°C 92% Calm Calm -- 24.98 in845.9 mb 0.00 in0.0 mm 0.00 in/hr0.0 mm/hr 0.00 in0.0 mm
10:08 PM 40.1°F4.5°C 37.9°F3.3°C 92% Calm Calm -- 24.98 in845.9 mb 0.00 in0.0 mm 0.00 in/hr0.0 mm/hr 0.00 in0.0 mm
10:13 PM 40.1°F4.5°C 38.3°F3.5°C 93% Calm Calm -- 24.98 in845.9 mb 0.00 in0.0 mm 0.00 in/hr0.0 mm/hr 0.00 in0.0 mm
10:18 PM 40.1°F4.5°C 38.3°F3.5°C 93% Calm Calm -- 24.98 in845.9 mb 0.00 in0.0 mm 0.00 in/hr0.0 mm/hr 0.00 in0.0 mm
10:23 PM 39.9°F4.4°C 38.1°F3.4°C 93% Calm Calm 4.0 mph6.4 kmh 24.98 in845.9 mb 0.00 in0.0 mm 0.00 in/hr0.0 mm/hr 0.00 in0.0 mm
10:28 PM 39.9°F4.4°C 38.1°F3.4°C 93% 2.0 mph NE3.2 kmh NE 4.0 mph6.4 kmh 24.98 in845.9 mb 0.00 in0.0 mm 0.00 in/hr0.0 mm/hr 0.00 in0.0 mm
10:33 PM 39.9°F4.4°C 38.1°F3.4°C 93% 3.0 mph NE4.8 kmh NE 4.5 mph7.2 kmh 24.98 in845.9 mb 0.00 in0.0 mm 0.00 in/hr0.0 mm/hr 0.00 in0.0 mm
10:38 PM 39.9°F4.4°C 38.3°F3.5°C 94% 2.0 mph NE3.2 kmh NE 3.6 mph5.8 kmh 24.98 in845.9 mb 0.00 in0.0 mm 0.00 in/hr0.0 mm/hr 0.00 in0.0 mm
10:43 PM 39.9°F4.4°C 38.3°F3.5°C 94% 2.0 mph ENE3.2 kmh ENE 4.0 mph6.4 kmh 24.98 in845.9 mb 0.00 in0.0 mm 0.00 in/hr0.0 mm/hr 0.00 in0.0 mm
10:48 PM 39.7°F4.3°C 38.1°F3.4°C 94% 2.0 mph ENE3.2 kmh ENE 3.1 mph5.0 kmh 24.98 in845.9 mb 0.00 in0.0 mm 0.00 in/hr0.0 mm/hr 0.00 in0.0 mm
10:53 PM 39.7°F4.3°C 38.1°F3.4°C 94% Calm Calm 3.1 mph5.0 kmh 24.98 in845.9 mb 0.00 in0.0 mm 0.00 in/hr0.0 mm/hr 0.00 in0.0 mm
10:58 PM 39.7°F4.3°C 38.1°F3.4°C 94% Calm Calm 2.7 mph4.3 kmh 24.98 in845.9 mb 0.00 in0.0 mm 0.00 in/hr0.0 mm/hr 0.00 in0.0 mm
11:03 PM 39.7°F4.3°C 38.1°F3.4°C 94% Calm Calm -- 24.98 in845.9 mb 0.00 in0.0 mm 0.00 in/hr0.0 mm/hr 0.00 in0.0 mm
11:08 PM 39.7°F4.3°C 38.1°F3.4°C 94% Calm Calm -- 24.98 in845.9 mb 0.00 in0.0 mm 0.00 in/hr0.0 mm/hr 0.00 in0.0 mm
11:13 PM 39.7°F4.3°C 38.1°F3.4°C 94% Calm Calm -- 24.98 in845.9 mb 0.00 in0.0 mm 0.00 in/hr0.0 mm/hr 0.00 in0.0 mm
11:18 PM 39.7°F4.3°C 38.1°F3.4°C 94% Calm Calm -- 24.98 in845.9 mb 0.00 in0.0 mm 0.00 in/hr0.0 mm/hr 0.00 in0.0 mm
11:23 PM 39.7°F4.3°C 38.1°F3.4°C 94% Calm Calm -- 24.98 in845.9 mb 0.00 in0.0 mm 0.00 in/hr0.0 mm/hr 0.00 in0.0 mm
11:28 PM 39.9°F4.4°C 38.7°F3.7°C 95% Calm Calm -- 24.98 in845.9 mb 0.00 in0.0 mm 0.00 in/hr0.0 mm/hr 0.00 in0.0 mm
11:33 PM 39.9°F4.4°C 38.7°F3.7°C 95% Calm Calm -- 24.98 in845.9 mb 0.00 in0.0 mm 0.00 in/hr0.0 mm/hr 0.00 in0.0 mm
11:38 PM 39.7°F4.3°C 38.5°F3.6°C 95% Calm Calm -- 24.98 in845.9 mb 0.00 in0.0 mm 0.00 in/hr0.0 mm/hr 0.00 in0.0 mm
11:43 PM 39.7°F4.3°C 38.5°F3.6°C 95% Calm Calm -- 24.98 in845.9 mb 0.00 in0.0 mm 0.00 in/hr0.0 mm/hr 0.00 in0.0 mm
11:48 PM 39.7°F4.3°C 38.5°F3.6°C 95% Calm Calm -- 24.98 in845.9 mb 0.00 in0.0 mm 0.00 in/hr0.0 mm/hr 0.00 in0.0 mm
11:53 PM 39.7°F4.3°C 38.5°F3.6°C 95% Calm Calm -- 24.98 in845.9 mb 0.00 in0.0 mm 0.00 in/hr0.0 mm/hr 0.00 in0.0 mm
11:58 PM 39.7°F4.3°C 38.5°F3.6°C 95% Calm Calm -- 24.98 in845.9 mb 0.00 in0.0 mm 0.00 in/hr0.0 mm/hr 0.00 in0.0 mm